Time;durP1;ratioP1;P1;durP2;ratioP2;P2;SDS_P1;SDS_P2;PMS_P1;PMS_P2;Temp;Humidity;BMP_temperature;BMP_pressure;BME280_temperature;BME280_humidity;BME280_pressure;Samples;Min_cycle;Max_cycle;Signal;HPM_P1;HPM_P2
2021/06/27 00:00:42;;;;;;;26.05;21.85;;;;;;;20.51;80.38;98917.83;130461;1087;23408;-64
2021/06/27 00:03:10;;;;;;;64.30;58.10;;;;;;;20.52;80.36;98908.38;130377;1087;114320;-64
2021/06/27 00:05:39;;;;;;;38.93;34.00;;;;;;;20.52;80.33;98910.34;130477;1087;22589;-64
2021/06/27 00:08:08;;;;;;;33.13;24.48;;;;;;;20.54;80.39;98902.52;130516;1087;22559;-64
2021/06/27 00:10:40;;;;;;;31.50;25.65;;;;;;;20.54;80.21;98908.05;130100;1090;114252;-64
2021/06/27 00:13:09;;;;;;;91.20;82.75;;;;;;;20.53;80.24;98910.00;130552;1090;22527;-64
2021/06/27 00:15:41;;;;;;;67.63;61.33;;;;;;;20.52;80.46;98911.16;130354;1086;114176;-64
2021/06/27 00:18:10;;;;;;;33.85;30.20;;;;;;;20.53;80.11;98914.73;130508;1088;23422;-64
2021/06/27 00:20:39;;;;;;;19.03;15.05;;;;;;;20.52;80.05;98921.41;130380;1089;114234;-64
2021/06/27 00:23:07;;;;;;;15.98;13.58;;;;;;;20.53;80.02;98917.50;130514;1090;22513;-64
2021/06/27 00:25:36;;;;;;;17.68;13.65;;;;;;;20.52;80.09;98916.69;130514;1090;22684;-64
2021/06/27 00:28:05;;;;;;;15.63;13.33;;;;;;;20.53;80.33;98923.03;130346;1087;113963;-64
2021/06/27 00:30:34;;;;;;;18.25;12.48;;;;;;;20.54;80.30;98933.77;130500;1088;22544;-64
2021/06/27 00:33:03;;;;;;;14.93;12.70;;;;;;;20.56;80.05;98933.44;130297;1087;114372;-64
2021/06/27 00:35:32;;;;;;;18.73;16.50;;;;;;;20.57;80.12;98935.87;130474;1090;22657;-64
2021/06/27 00:38:00;;;;;;;67.88;61.25;;;;;;;20.58;79.97;98928.38;130483;1089;22603;-64
2021/06/27 00:40:29;;;;;;;137.38;124.58;;;;;;;20.58;80.14;98920.88;130396;1087;114402;-64
2021/06/27 00:42:57;;;;;;;124.58;112.98;;;;;;;20.58;79.92;98911.77;130463;1087;22601;-64
2021/06/27 00:45:27;;;;;;;97.30;87.90;;;;;;;20.54;79.82;98896.98;130408;1090;114454;-64
2021/06/27 00:47:58;;;;;;;87.20;78.53;;;;;;;20.50;79.93;98899.61;130467;1089;22567;-64
2021/06/27 00:50:29;;;;;;;21.00;18.75;;;;;;;20.47;79.95;98886.47;130525;1090;22559;-64
2021/06/27 00:52:59;;;;;;;19.25;14.68;;;;;;;20.45;79.91;98888.77;130334;1089;114195;-64
2021/06/27 00:55:28;;;;;;;30.50;26.18;;;;;;;20.42;80.15;98893.02;130506;1087;22517;-64
2021/06/27 00:57:56;;;;;;;27.85;24.83;;;;;;;20.41;80.25;98904.41;130330;1087;114096;-64
2021/06/27 01:00:27;;;;;;;27.38;22.50;;;;;;;20.38;80.18;98903.13;130525;1090;23429;-64
2021/06/27 01:02:55;;;;;;;29.53;25.98;;;;;;;20.38;80.28;98914.19;130390;1089;114611;-64
2021/06/27 01:05:26;;;;;;;25.85;21.30;;;;;;;20.38;80.37;98933.56;130493;1088;22576;-64
2021/06/27 01:07:54;;;;;;;23.55;19.95;;;;;;;20.34;80.33;98934.56;130495;1087;22523;-64
2021/06/27 01:10:22;;;;;;;23.35;19.95;;;;;;;20.30;80.49;98925.31;130386;1087;114779;-64
2021/06/27 01:12:51;;;;;;;26.40;19.80;;;;;;;20.26;80.26;98939.00;130460;1088;22592;-64
2021/06/27 01:15:20;;;;;;;25.20;18.55;;;;;;;20.23;80.15;98942.42;130110;1090;114644;-63
2021/06/27 01:17:51;;;;;;;21.13;18.80;;;;;;;20.20;80.18;98950.61;125942;1087;24423;-63
2021/06/27 01:20:24;;;;;;;20.90;18.70;;;;;;;20.15;80.07;98945.27;130466;1088;22618;-64
2021/06/27 01:22:53;;;;;;;33.03;19.45;;;;;;;20.09;80.23;98942.68;130411;1088;114092;-64
2021/06/27 01:25:26;;;;;;;24.33;18.83;;;;;;;20.05;80.00;98947.25;130438;1090;22637;-64
2021/06/27 01:27:55;;;;;;;27.45;19.50;;;;;;;19.99;79.99;98945.03;130401;1090;114179;-64
2021/06/27 01:30:24;;;;;;;27.88;19.68;;;;;;;19.96;80.42;98940.97;130494;1087;22609;-64
2021/06/27 01:32:54;;;;;;;30.03;19.38;;;;;;;19.95;80.39;98944.88;130407;1090;116645;-64
2021/06/27 01:35:24;;;;;;;31.00;18.05;;;;;;;19.93;80.49;98938.05;130469;1089;22553;-64
2021/06/27 01:37:53;;;;;;;26.63;18.45;;;;;;;19.90;80.14;98936.80;130520;1090;22528;-64
2021/06/27 01:40:23;;;;;;;25.13;17.68;;;;;;;19.85;80.40;98941.69;130057;1088;114658;-64
2021/06/27 01:42:51;;;;;;;24.73;18.05;;;;;;;19.79;80.33;98941.06;130534;1089;23163;-64
2021/06/27 01:45:22;;;;;;;27.08;19.63;;;;;;;19.75;80.90;98945.66;130430;1090;114679;-64
2021/06/27 01:47:55;;;;;;;32.25;23.83;;;;;;;19.72;80.70;98943.55;130498;1088;22516;-64
2021/06/27 01:50:23;;;;;;;27.00;19.85;;;;;;;19.67;80.87;98932.66;130515;1089;24357;-64
2021/06/27 01:52:52;;;;;;;26.60;22.55;;;;;;;19.64;81.00;98934.14;130317;1089;114269;-64
2021/06/27 01:55:20;;;;;;;29.65;22.35;;;;;;;19.64;81.25;98942.42;130486;1090;22590;-64
2021/06/27 01:57:49;;;;;;;26.05;21.23;;;;;;;19.63;81.35;98943.56;130352;1089;114205;-65
2021/06/27 02:00:18;;;;;;;23.85;18.63;;;;;;;19.63;81.63;98939.99;130530;1088;23402;-64
2021/06/27 02:02:46;;;;;;;23.25;17.75;;;;;;;19.62;81.22;98954.98;130356;1088;114196;-64
2021/06/27 02:05:15;;;;;;;22.73;17.68;;;;;;;19.60;81.10;98963.59;130518;1090;22555;-65
2021/06/27 02:07:43;;;;;;;24.30;18.83;;;;;;;19.56;80.79;98967.34;130479;1090;22613;-65
2021/06/27 02:10:14;;;;;;;25.70;19.73;;;;;;;19.52;81.01;98958.90;130414;1088;114126;-64
2021/06/27 02:12:42;;;;;;;21.50;18.65;;;;;;;19.49;80.83;98956.79;130471;1090;22568;-65
2021/06/27 02:15:12;;;;;;;26.65;18.80;;;;;;;19.46;80.86;98957.44;130386;1089;114527;-64
2021/06/27 02:18:04;;;;;;;27.05;20.00;;;;;;;19.42;81.05;98957.28;130519;1088;22557;-64
2021/06/27 02:20:33;;;;;;;29.15;20.58;;;;;;;19.41;81.45;98965.91;130460;1090;23375;-64
2021/06/27 02:23:02;;;;;;;30.60;20.33;;;;;;;19.41;81.60;98963.14;130446;1088;113894;-65
2021/06/27 02:25:30;;;;;;;22.50;20.00;;;;;;;19.43;81.96;98974.67;130443;1089;23262;-64
2021/06/27 02:27:58;;;;;;;25.58;19.48;;;;;;;19.42;81.82;98973.05;130393;1088;114133;-64
2021/06/27 02:30:28;;;;;;;23.48;18.43;;;;;;;19.40;81.58;98967.85;130465;1088;22576;-64
2021/06/27 02:32:56;;;;;;;27.03;18.27;;;;;;;19.39;81.69;98968.98;130390;1088;114215;-64
2021/06/27 02:35:24;;;;;;;23.08;18.55;;;;;;;19.43;82.14;98969.15;130448;1089;22738;-65
2021/06/27 02:37:53;;;;;;;25.23;17.93;;;;;;;19.45;82.18;98966.06;130197;1089;22519;-65
2021/06/27 02:40:22;;;;;;;29.25;19.28;;;;;;;19.49;82.29;98978.05;130366;1087;113981;-65
2021/06/27 02:42:51;;;;;;;23.02;18.15;;;;;;;19.51;82.33;98984.91;130521;1090;22570;-65
2021/06/27 02:45:21;;;;;;;22.75;18.35;;;;;;;19.54;82.44;98987.02;130371;1088;114542;-65
2021/06/27 02:47:49;;;;;;;24.55;17.58;;;;;;;19.56;82.12;98990.27;130509;1087;22555;-65
2021/06/27 02:50:17;;;;;;;24.68;17.20;;;;;;;19.59;82.13;98999.86;130468;1090;22627;-65
2021/06/27 02:52:46;;;;;;;25.00;18.35;;;;;;;19.61;82.35;98992.05;130424;1088;114346;-65
2021/06/27 02:55:14;;;;;;;28.48;17.30;;;;;;;19.62;82.08;98988.92;130494;1090;22537;-64
2021/06/27 02:57:42;;;;;;;22.90;16.75;;;;;;;19.64;82.17;98996.89;130357;1089;114143;-64
2021/06/27 03:00:13;;;;;;;21.77;16.28;;;;;;;19.66;82.10;98998.19;130497;1089;22560;-64
2021/06/27 03:02:42;;;;;;;19.35;16.18;;;;;;;19.65;82.08;98995.75;130353;1088;114258;-63
2021/06/27 03:05:10;;;;;;;27.93;15.65;;;;;;;19.69;82.19;98996.72;130486;1090;22574;-64
2021/06/27 03:07:39;;;;;;;22.98;16.73;;;;;;;19.68;82.19;98998.67;130163;1088;22571;-64
2021/06/27 03:10:11;;;;;;;22.30;16.93;;;;;;;19.67;82.18;98999.81;130399;1087;114246;-64
2021/06/27 03:12:40;;;;;;;25.25;16.85;;;;;;;19.68;82.66;98992.33;130445;1087;22570;-64
2021/06/27 03:15:29;;;;;;;22.48;17.08;;;;;;;19.65;82.69;98999.33;130441;1087;115054;-64
2021/06/27 03:17:57;;;;;;;20.78;18.00;;;;;;;19.66;83.10;99000.14;130413;1088;22571;-64
2021/06/27 03:20:26;;;;;;;25.33;18.10;;;;;;;19.67;83.36;99007.30;130493;1090;22567;-64
2021/06/27 03:23:56;;;;;;;21.30;18.30;;;;;;;19.70;83.93;99004.69;125610;1093;22846;-63
2021/06/27 03:26:25;;;;;;;20.93;18.60;;;;;;;19.74;83.85;99007.61;125587;1092;24483;-64
2021/06/27 03:28:54;;;;;;;21.88;18.78;;;;;;;19.76;83.76;99003.34;129652;1093;113931;-64
2021/06/27 03:31:22;;;;;;;23.70;17.98;;;;;;;19.81;83.83;99007.08;129836;1093;22580;-64
2021/06/27 03:33:51;;;;;;;20.65;17.58;;;;;;;19.86;83.99;99006.91;129719;1093;114362;-64
2021/06/27 03:36:19;;;;;;;22.80;18.55;;;;;;;19.90;83.97;99003.16;129825;1093;23121;-64
2021/06/27 03:41:36;;;;;;;23.70;17.38;;;;;;;20.02;83.81;98994.95;129811;1093;22643;-64
2021/06/27 03:44:04;;;;;;;23.70;17.27;;;;;;;20.09;84.03;98997.19;129775;1093;22567;-64
2021/06/27 03:46:33;;;;;;;21.38;19.10;;;;;;;20.13;83.62;98998.96;129688;1092;113707;-64
2021/06/27 03:49:01;;;;;;;21.38;17.95;;;;;;;20.16;83.70;98980.89;129801;1093;22705;-64
2021/06/27 03:51:30;;;;;;;24.63;17.63;;;;;;;20.18;83.54;98986.91;129735;1092;113950;-64
2021/06/27 03:53:58;;;;;;;18.70;12.60;;;;;;;20.20;82.95;98990.13;129699;1093;22528;-64
2021/06/27 03:56:27;;;;;;;13.80;10.75;;;;;;;20.22;82.32;98990.59;127349;1093;22789;-61
2021/06/27 03:58:55;;;;;;;12.18;9.08;;;;;;;20.24;81.38;98990.27;129628;1092;114983;-62
2021/06/27 04:01:24;;;;;;;11.05;8.75;;;;;;;20.26;81.05;98985.22;129824;1093;22532;-62
2021/06/27 04:03:52;;;;;;;12.50;7.73;;;;;;;20.29;80.59;98995.62;129639;1092;114226;-62
2021/06/27 04:06:21;;;;;;;11.13;7.20;;;;;;;20.31;79.93;98996.09;129788;1092;22555;-62
2021/06/27 04:08:49;;;;;;;13.03;7.95;;;;;;;20.34;79.57;98987.14;129680;1092;115297;-62
2021/06/27 04:11:19;;;;;;;13.28;7.55;;;;;;;20.38;79.32;98982.56;129831;1092;22609;-62
2021/06/27 04:13:47;;;;;;;10.45;6.60;;;;;;;20.43;79.29;98983.19;129809;1092;22585;-62
2021/06/27 04:16:16;;;;;;;11.15;7.03;;;;;;;20.49;79.49;98977.46;129739;1093;113750;-62
2021/06/27 04:18:46;;;;;;;9.43;7.03;;;;;;;20.54;79.03;98978.05;129785;1092;22581;-62
2021/06/27 04:21:14;;;;;;;8.30;7.15;;;;;;;20.59;78.80;98983.40;129723;1093;113776;-62
2021/06/27 04:23:42;;;;;;;9.35;7.30;;;;;;;20.64;78.40;98979.59;129796;1093;23336;-60
2021/06/27 04:26:11;;;;;;;9.55;6.93;;;;;;;20.69;77.97;98974.68;129832;1093;22583;-62
2021/06/27 04:28:39;;;;;;;10.40;6.45;;;;;;;20.73;77.26;98972.86;129748;1093;113674;-62
2021/06/27 04:31:08;;;;;;;10.33;6.48;;;;;;;20.79;77.08;98981.75;129799;1093;23346;-63
2021/06/27 04:33:37;;;;;;;8.18;6.00;;;;;;;20.83;76.59;98971.63;129713;1092;113823;-63
2021/06/27 04:36:06;;;;;;;7.75;5.85;;;;;;;20.89;75.96;98970.29;129788;1092;22582;-63
2021/06/27 04:38:34;;;;;;;9.05;6.10;;;;;;;20.92;75.65;98964.05;129795;1092;22894;-63
2021/06/27 04:41:02;;;;;;;12.18;5.98;;;;;;;20.99;75.68;98964.31;129683;1092;113163;-63
2021/06/27 04:43:31;;;;;;;9.48;5.45;;;;;;;21.04;75.02;98968.84;129770;1093;22630;-63
2021/06/27 04:45:59;;;;;;;8.08;5.48;;;;;;;21.08;74.64;98966.99;129677;1093;113922;-63
2021/06/27 04:48:28;;;;;;;5.93;4.95;;;;;;;21.11;74.44;98975.44;129840;1092;23387;-63
2021/06/27 04:50:56;;;;;;;8.13;5.35;;;;;;;21.16;74.71;98971.66;129655;1093;114116;-63
2021/06/27 04:53:24;;;;;;;7.63;4.48;;;;;;;21.20;74.12;98978.17;129835;1093;22553;-63
2021/06/27 04:55:52;;;;;;;7.65;4.78;;;;;;;21.22;73.86;98978.62;129804;1093;22534;-63
2021/06/27 04:58:21;;;;;;;10.03;5.10;;;;;;;21.24;73.62;98992.94;129690;1092;113617;-63
2021/06/27 05:00:49;;;;;;;6.33;4.45;;;;;;;21.28;73.40;98991.12;129807;1092;22687;-63
2021/06/27 05:03:20;;;;;;;7.83;4.55;;;;;;;21.31;73.33;98992.41;129702;1093;113777;-63
2021/06/27 05:05:49;;;;;;;7.53;4.43;;;;;;;21.33;73.04;98996.45;129776;1093;24076;-62
2021/06/27 05:08:17;;;;;;;6.70;3.80;;;;;;;21.37;72.74;98996.56;129843;1092;23052;-63
2021/06/27 05:10:45;;;;;;;5.68;4.38;;;;;;;21.40;72.70;99004.20;129699;1092;113649;-63
2021/06/27 05:13:16;;;;;;;5.23;3.78;;;;;;;21.44;72.92;99016.22;129845;1093;22626;-63
2021/06/27 05:15:45;;;;;;;7.90;4.80;;;;;;;21.48;72.78;99029.07;129703;1093;113853;-62
2021/06/27 05:18:14;;;;;;;10.53;5.90;;;;;;;21.51;72.48;99028.36;129823;1092;22598;-63
2021/06/27 05:20:42;;;;;;;7.45;5.73;;;;;;;21.55;72.86;99034.03;129715;1093;114655;-63
2021/06/27 05:23:11;;;;;;;8.88;6.10;;;;;;;21.57;73.19;99050.33;129793;1092;22601;-63
2021/06/27 05:25:40;;;;;;;7.43;5.48;;;;;;;21.56;73.05;99048.71;129855;1093;22549;-63
2021/06/27 05:28:08;;;;;;;11.00;5.10;;;;;;;21.54;72.77;99046.27;129678;1092;113437;-63
2021/06/27 05:30:36;;;;;;;5.18;4.50;;;;;;;21.53;72.83;99048.23;129831;1092;22558;-63
2021/06/27 05:33:06;;;;;;;8.10;4.08;;;;;;;21.55;72.65;99047.09;129683;1092;114357;-63
2021/06/27 05:35:34;;;;;;;6.50;3.25;;;;;;;21.57;72.77;99050.33;129078;1093;22943;-64
2021/06/27 05:38:03;;;;;;;5.23;4.18;;;;;;;21.59;71.98;99054.39;129794;1093;23457;-63
2021/06/27 05:40:32;;;;;;;7.78;4.55;;;;;;;21.62;71.88;99047.35;129700;1092;114065;-63
2021/06/27 05:43:01;;;;;;;8.35;5.45;;;;;;;21.65;71.93;99050.23;129784;1092;22609;-63
2021/06/27 05:45:29;;;;;;;10.03;4.78;;;;;;;21.69;71.95;99044.81;129724;1093;113928;-63
2021/06/27 05:47:57;;;;;;;7.85;5.28;;;;;;;21.74;71.87;99055.70;129723;1093;22642;-63
2021/06/27 05:50:25;;;;;;;7.85;5.30;;;;;;;21.78;71.74;99046.36;129846;1093;22570;-63
2021/06/27 05:52:54;;;;;;;5.38;4.33;;;;;;;21.80;71.52;99044.02;129637;1093;114162;-63
2021/06/27 05:55:22;;;;;;;6.30;4.80;;;;;;;21.86;71.20;99050.98;129821;1092;23436;-63
2021/06/27 05:57:50;;;;;;;7.65;3.93;;;;;;;21.90;70.82;99047.52;129641;1093;113663;-63
2021/06/27 06:00:19;;;;;;;6.43;4.48;;;;;;;21.94;70.84;99045.66;129807;1092;22609;-63
2021/06/27 06:02:48;;;;;;;11.30;4.53;;;;;;;22.00;70.66;99038.78;129667;1093;113774;-63
2021/06/27 06:05:16;;;;;;;10.43;4.30;;;;;;;22.07;70.05;99033.48;129791;1093;23698;-63
2021/06/27 06:07:46;;;;;;;8.00;4.38;;;;;;;22.12;69.60;99025.72;129828;1092;23516;-63
2021/06/27 06:10:14;;;;;;;10.63;5.08;;;;;;;22.19;68.76;99022.38;129719;1093;114001;-63
2021/06/27 06:13:02;;;;;;;5.73;4.78;;;;;;;22.26;68.43;99025.37;129785;1092;22515;-62
2021/06/27 06:15:51;;;;;;;7.63;4.50;;;;;;;22.33;68.35;99016.47;129723;1092;114708;-63
2021/06/27 06:18:41;;;;;;;7.98;5.03;;;;;;;22.41;68.27;99015.53;129752;1091;23374;-63
2021/06/27 06:21:11;;;;;;;7.95;4.38;;;;;;;22.48;67.72;99015.77;129694;1093;113281;-63
2021/06/27 06:23:40;;;;;;;9.45;4.70;;;;;;;22.57;67.86;99022.80;129812;1093;24291;-63
2021/06/27 06:26:08;;;;;;;7.45;4.55;;;;;;;22.65;67.68;99031.37;129836;1093;23327;-63
2021/06/27 06:28:40;;;;;;;8.80;4.58;;;;;;;22.76;67.82;99030.55;129699;1093;114927;-63
2021/06/27 06:31:09;;;;;;;8.35;4.78;;;;;;;22.90;67.27;99019.06;129814;1093;23407;-63
2021/06/27 06:33:37;;;;;;;8.33;5.20;;;;;;;23.04;66.75;99010.33;129711;1093;113648;-63
2021/06/27 06:36:10;;;;;;;6.53;4.58;;;;;;;23.15;65.85;99008.66;129791;1093;22598;-63
2021/06/27 06:38:39;;;;;;;7.80;4.60;;;;;;;23.26;65.79;99009.77;129739;1093;113760;-62
2021/06/27 06:41:07;;;;;;;8.18;3.98;;;;;;;23.37;65.08;99005.33;129778;1093;22683;-63
2021/06/27 06:43:36;;;;;;;4.85;3.95;;;;;;;23.45;64.63;99000.75;129820;1093;22582;-63
2021/06/27 06:46:04;;;;;;;9.70;4.50;;;;;;;23.52;63.73;99001.77;129676;1093;113696;-63
2021/06/27 06:48:33;;;;;;;9.10;4.95;;;;;;;23.58;63.64;98997.58;129809;1092;22590;-63
2021/06/27 06:51:01;;;;;;;9.35;4.33;;;;;;;23.63;64.23;99004.86;129674;1093;113942;-63
2021/06/27 06:53:29;;;;;;;7.15;4.48;;;;;;;23.68;64.18;98998.20;129845;1093;22513;-63
2021/06/27 06:55:58;;;;;;;7.35;4.20;;;;;;;23.71;63.83;98998.30;129812;1093;22617;-63
2021/06/27 06:58:29;;;;;;;9.68;4.70;;;;;;;23.74;63.84;99002.34;129700;1093;115160;-63
2021/06/27 07:00:58;;;;;;;5.25;4.08;;;;;;;23.80;63.99;98998.14;129761;1092;22590;-63
2021/06/27 07:03:27;;;;;;;13.08;4.73;;;;;;;23.87;63.01;98998.31;129735;1093;113591;-63
2021/06/27 07:05:57;;;;;;;6.58;4.25;;;;;;;23.92;62.81;98998.05;129799;1092;23164;-64
2021/06/27 07:08:27;;;;;;;7.83;4.55;;;;;;;24.00;62.68;98999.83;129843;1093;22613;-64
2021/06/27 07:10:58;;;;;;;11.90;4.85;;;;;;;24.07;61.60;98999.22;129686;1093;113479;-64
2021/06/27 07:13:43;;;;;;;36.08;9.03;;;;;;;24.11;61.74;98991.73;129796;1093;23011;-64
2021/06/27 07:16:12;;;;;;;7.65;4.68;;;;;;;24.14;61.27;98989.05;129671;1092;115042;-64
2021/06/27 07:18:41;;;;;;;7.98;5.00;;;;;;;24.16;61.46;98981.14;129826;1092;22534;-64
2021/06/27 07:21:09;;;;;;;7.18;4.73;;;;;;;24.19;61.66;98982.41;129628;1093;115339;-64
2021/06/27 07:23:38;;;;;;;6.35;4.70;;;;;;;24.24;61.56;98982.14;129847;1093;22603;-64
2021/06/27 07:26:06;;;;;;;8.15;5.03;;;;;;;24.29;61.38;98974.33;129806;1093;22657;-63
2021/06/27 07:28:36;;;;;;;8.20;4.38;;;;;;;24.35;60.76;98982.41;129732;1093;113603;-64
2021/06/27 07:31:04;;;;;;;7.50;4.00;;;;;;;24.38;60.90;98981.69;129811;1093;22601;-63
2021/06/27 07:33:33;;;;;;;6.98;4.08;;;;;;;24.43;60.10;98971.06;129672;1093;113892;-63
2021/06/27 07:36:03;;;;;;;4.50;4.10;;;;;;;24.49;59.98;98963.24;129829;1092;22520;-64
2021/06/27 07:38:32;;;;;;;6.55;4.73;;;;;;;24.52;59.86;98956.95;129809;1092;22560;-64
2021/06/27 07:41:00;;;;;;;5.55;3.90;;;;;;;24.53;59.89;98950.18;129711;1092;113593;-64
2021/06/27 07:43:30;;;;;;;6.50;3.80;;;;;;;24.55;59.32;98945.05;129801;1093;22543;-64
2021/06/27 07:45:59;;;;;;;7.75;4.03;;;;;;;24.58;59.21;98942.35;129731;1093;114109;-64
2021/06/27 07:48:27;;;;;;;4.70;3.63;;;;;;;24.59;59.07;98941.19;129777;1093;22783;-64
2021/06/27 07:50:55;;;;;;;10.05;4.88;;;;;;;24.62;60.10;98939.66;129718;1092;114797;-64
2021/06/27 07:53:24;;;;;;;9.25;4.48;;;;;;;24.66;60.09;98937.76;129783;1092;24041;-64
2021/06/27 07:55:53;;;;;;;7.00;4.80;;;;;;;24.70;60.82;98937.81;129826;1092;23298;-64
2021/06/27 07:58:21;;;;;;;5.18;4.28;;;;;;;24.75;60.38;98941.13;129674;1092;114522;-64
2021/06/27 08:00:50;;;;;;;4.65;3.60;;;;;;;24.79;58.71;98938.41;129844;1093;22638;-64
2021/06/27 08:03:18;;;;;;;6.08;4.00;;;;;;;24.82;59.13;98932.89;129641;1092;114410;-64
2021/06/27 08:05:47;;;;;;;9.03;4.85;;;;;;;24.86;59.13;98936.56;129804;1093;22567;-64
2021/06/27 08:08:15;;;;;;;7.03;4.48;;;;;;;24.91;58.10;98933.50;129807;1093;22543;-64
2021/06/27 08:10:44;;;;;;;5.20;4.35;;;;;;;24.97;58.18;98922.87;129705;1093;113827;-64
2021/06/27 08:13:12;;;;;;;4.38;3.78;;;;;;;24.99;57.61;98918.55;129809;1093;22543;-64
2021/06/27 08:15:40;;;;;;;6.93;4.50;;;;;;;25.05;57.69;98915.47;129717;1092;113766;-64
2021/06/27 08:18:09;;;;;;;7.38;4.83;;;;;;;25.07;57.70;98922.30;129802;1093;22590;-64
2021/06/27 08:20:38;;;;;;;5.28;4.70;;;;;;;25.09;57.49;98919.14;129828;1093;23346;-64
2021/06/27 08:23:07;;;;;;;6.73;3.78;;;;;;;25.14;56.96;98911.27;129697;1093;113841;-63
2021/06/27 08:25:40;;;;;;;5.58;3.88;;;;;;;25.19;57.27;98905.39;129858;1092;22643;-64
2021/06/27 08:28:08;;;;;;;8.35;4.93;;;;;;;25.28;57.92;98902.35;129728;1092;114333;-64
2021/06/27 08:30:37;;;;;;;5.13;3.93;;;;;;;25.36;57.28;98896.55;129783;1092;22619;-64
2021/06/27 08:33:06;;;;;;;7.10;4.43;;;;;;;25.44;57.65;98903.05;129720;1093;114535;-64
2021/06/27 08:35:35;;;;;;;9.28;4.75;;;;;;;25.51;56.40;98900.39;129806;1093;22525;-64
2021/06/27 08:38:04;;;;;;;6.78;5.00;;;;;;;25.57;57.67;98890.52;129804;1091;22591;-64
2021/06/27 08:40:35;;;;;;;5.43;4.93;;;;;;;25.64;58.01;98889.88;129698;1093;113888;-64
2021/06/27 08:43:08;;;;;;;6.00;5.00;;;;;;;25.71;57.58;98901.94;129805;1092;22518;-64
2021/06/27 08:45:50;;;;;;;5.30;4.05;;;;;;;25.79;56.39;98899.28;129688;1093;113665;-63
2021/06/27 08:48:21;;;;;;;6.40;5.13;;;;;;;25.82;55.46;98893.77;129833;1093;23283;-62
2021/06/27 08:50:50;;;;;;;5.65;4.23;;;;;;;25.85;55.57;98889.39;129724;1092;114041;-62
2021/06/27 08:53:19;;;;;;;8.23;5.23;;;;;;;25.89;56.33;98885.48;129836;1092;22588;-63
2021/06/27 08:56:04;;;;;;;5.35;4.80;;;;;;;25.96;57.25;98887.59;129769;1092;22597;-62
2021/06/27 08:58:40;;;;;;;6.30;4.83;;;;;;;26.02;57.15;98875.71;129695;1093;114274;-63
2021/06/27 09:01:16;;;;;;;6.78;5.45;;;;;;;26.09;57.23;98877.01;129778;1092;23164;-62
2021/06/27 09:03:45;;;;;;;13.40;5.13;;;;;;;26.14;56.88;98865.49;129700;1092;114095;-63
2021/06/27 09:06:27;;;;;;;10.35;4.78;;;;;;;26.17;56.16;98873.13;129797;1092;22571;-63
2021/06/27 09:09:14;;;;;;;7.18;4.43;;;;;;;26.20;56.41;98870.39;129722;1092;114123;-63
2021/06/27 09:12:02;;;;;;;5.78;4.78;;;;;;;26.25;56.20;98866.47;129800;1093;22575;-63
2021/06/27 09:14:36;;;;;;;9.25;4.75;;;;;;;26.33;56.30;98870.98;129832;1093;22662;-63
2021/06/27 09:17:13;;;;;;;10.55;5.40;;;;;;;26.37;56.42;98869.86;129705;1093;113658;-63
2021/06/27 09:19:54;;;;;;;6.60;5.53;;;;;;;26.43;56.14;98872.30;129829;1093;22631;-63
2021/06/27 09:22:27;;;;;;;11.18;5.28;;;;;;;26.45;56.81;98875.52;129689;1092;114664;-63
2021/06/27 09:25:16;;;;;;;7.90;5.83;;;;;;;26.48;56.46;98867.20;129864;1093;22559;-63
2021/06/27 09:27:45;;;;;;;10.93;5.35;;;;;;;26.52;56.74;98878.42;129697;1092;116157;-63
2021/06/27 09:30:17;;;;;;;9.03;5.38;;;;;;;26.54;55.57;98878.85;129840;1092;23357;-63
2021/06/27 09:33:03;;;;;;;6.90;5.03;;;;;;;26.53;56.25;98885.63;129676;1093;113863;-63
2021/06/27 09:35:46;;;;;;;5.77;4.83;;;;;;;26.55;56.99;98891.61;129835;1093;22639;-63
2021/06/27 09:38:26;;;;;;;7.25;4.83;;;;;;;26.58;56.10;98902.84;129803;1093;22682;-63
2021/06/27 09:41:13;;;;;;;6.23;5.38;;;;;;;26.59;57.04;98901.66;129707;1092;113782;-62
2021/06/27 09:43:48;;;;;;;10.15;5.35;;;;;;;26.60;56.23;98902.47;129826;1093;22556;-63
2021/06/27 09:46:17;;;;;;;6.53;5.88;;;;;;;26.59;56.55;98906.44;129709;1092;114628;-61
2021/06/27 09:48:53;;;;;;;7.25;5.13;;;;;;;26.59;56.90;98917.63;129831;1092;23098;-61
2021/06/27 09:51:23;;;;;;;7.10;5.28;;;;;;;26.58;57.59;98911.22;129708;1093;114460;-63
2021/06/27 09:53:52;;;;;;;6.10;5.50;;;;;;;26.59;57.60;98914.83;129821;1092;22551;-63
2021/06/27 09:56:24;;;;;;;6.55;5.60;;;;;;;26.60;57.20;98930.41;127535;1093;27144;-64
2021/06/27 09:58:56;;;;;;;5.48;4.83;;;;;;;26.60;57.48;98928.42;129704;1093;114140;-63
2021/06/27 10:01:26;;;;;;;8.30;5.40;;;;;;;26.62;57.25;98937.23;129811;1093;22540;-63
2021/06/27 10:03:57;;;;;;;6.78;5.40;;;;;;;26.62;58.02;98931.64;129655;1092;113791;-63
2021/06/27 10:06:31;;;;;;;11.73;5.75;;;;;;;26.65;56.63;98932.88;129800;1092;22553;-63
2021/06/27 10:09:10;;;;;;;6.68;5.40;;;;;;;26.62;56.08;98930.84;129687;1093;114294;-63
2021/06/27 10:11:39;;;;;;;6.43;5.83;;;;;;;26.56;57.06;98940.72;129833;1093;22567;-62
2021/06/27 10:14:10;;;;;;;7.75;5.68;;;;;;;26.56;57.20;98947.12;129790;1093;23318;-63
2021/06/27 10:16:39;;;;;;;7.53;5.60;;;;;;;26.55;57.05;98941.91;129736;1092;113785;-63
2021/06/27 10:19:09;;;;;;;7.48;5.20;;;;;;;26.53;56.79;98944.30;129790;1093;22560;-63
2021/06/27 10:21:39;;;;;;;6.63;5.93;;;;;;;26.50;57.53;98945.86;129693;1093;113827;-63
2021/06/27 10:24:09;;;;;;;6.95;5.95;;;;;;;26.48;56.92;98944.62;129768;1093;22630;-63
2021/06/27 10:26:38;;;;;;;6.23;5.33;;;;;;;26.41;57.04;98954.50;129820;1092;23115;-63
2021/06/27 10:29:07;;;;;;;10.65;6.28;;;;;;;26.35;56.69;98961.61;129618;1092;113566;-65
2021/06/27 10:31:36;;;;;;;7.43;4.98;;;;;;;26.25;56.40;98959.44;129766;1093;23068;-65
2021/06/27 10:34:04;;;;;;;8.20;5.53;;;;;;;26.13;56.58;98956.84;129640;1093;115130;-65
2021/06/27 10:36:36;;;;;;;9.60;5.83;;;;;;;26.08;56.81;98953.58;129827;1093;22572;-64
2021/06/27 10:39:12;;;;;;;7.38;5.35;;;;;;;26.07;57.75;98961.14;129676;1093;115286;-65
2021/06/27 10:41:51;;;;;;;7.40;5.25;;;;;;;26.08;57.44;98959.97;129822;1093;22546;-65
2021/06/27 10:44:20;;;;;;;5.70;5.03;;;;;;;26.07;56.93;98966.73;129804;1092;22571;-65
2021/06/27 10:46:53;;;;;;;6.23;5.15;;;;;;;26.04;57.05;98961.89;129723;1092;113792;-65
2021/06/27 10:49:31;;;;;;;6.18;5.58;;;;;;;26.06;56.54;98965.12;129786;1093;22623;-65
2021/06/27 10:52:09;;;;;;;9.38;5.48;;;;;;;26.11;56.55;98958.41;129738;1092;114145;-65
2021/06/27 10:54:39;;;;;;;5.00;4.43;;;;;;;26.16;56.35;98958.88;129800;1093;23137;-65
2021/06/27 10:57:08;;;;;;;6.40;4.95;;;;;;;26.22;56.60;98962.98;129692;1093;114573;-65
2021/06/27 10:59:47;;;;;;;5.80;5.20;;;;;;;26.29;57.19;98965.89;129800;1093;22575;-65
2021/06/27 11:02:20;;;;;;;5.10;4.60;;;;;;;26.37;56.89;98966.82;129812;1093;22558;-65
2021/06/27 11:04:53;;;;;;;7.60;4.60;;;;;;;26.43;55.33;98970.88;129658;1093;114156;-65
2021/06/27 11:07:35;;;;;;;6.13;4.80;;;;;;;26.48;56.19;98966.97;129835;1093;22635;-65
2021/06/27 11:10:19;;;;;;;9.10;4.75;;;;;;;26.52;56.67;98970.63;129652;1093;113766;-65
2021/06/27 11:13:02;;;;;;;5.33;4.78;;;;;;;26.57;56.50;98962.70;130157;1090;22524;-64
2021/06/27 11:15:32;;;;;;;8.08;5.23;;;;;;;26.62;56.32;98964.38;129963;1090;114243;-64
2021/06/27 11:18:03;;;;;;;4.88;4.48;;;;;;;26.66;56.03;98962.44;130118;1090;22546;-65
2021/06/27 11:20:36;;;;;;;7.05;5.18;;;;;;;26.69;56.08;98964.48;130059;1089;22636;-65
2021/06/27 11:23:04;;;;;;;5.80;4.88;;;;;;;26.75;56.31;98962.95;130020;1089;113035;-65
2021/06/27 11:25:43;;;;;;;8.73;4.70;;;;;;;26.79;55.20;98963.81;129276;1090;26243;-64
2021/06/27 11:28:20;;;;;;;4.87;4.43;;;;;;;26.84;54.60;98966.25;129989;1093;114060;-65
2021/06/27 11:31:21;;;;;;;7.18;4.45;;;;;;;26.92;54.22;98973.56;130101;1090;23691;-65
2021/06/27 11:34:21;;;;;;;5.33;4.48;;;;;;;26.97;54.51;98969.66;130012;1092;113726;-67